createdAt,value
2023-01-31T00:01:24.376Z,5.40
2023-01-31T00:03:54.793Z,5.50
2023-01-31T00:06:25.212Z,5.60
2023-01-31T00:08:53.970Z,5.60
2023-01-31T00:11:23.670Z,5.70
2023-01-31T00:13:51.738Z,5.80
2023-01-31T00:16:20.193Z,6.00
2023-01-31T00:18:49.633Z,6.10
2023-01-31T00:21:19.307Z,6.30
2023-01-31T00:23:48.115Z,6.50
2023-01-31T00:26:17.813Z,6.50
2023-01-31T00:28:47.606Z,6.50
2023-01-31T00:31:16.919Z,6.30
2023-01-31T00:33:46.704Z,6.00
2023-01-31T00:36:18.124Z,6.00
2023-01-31T00:38:46.211Z,6.10
2023-01-31T00:41:14.019Z,6.10
2023-01-31T00:43:41.835Z,6.20
2023-01-31T00:46:09.679Z,6.20
2023-01-31T00:48:37.881Z,6.20
2023-01-31T00:51:06.598Z,6.20
2023-01-31T00:53:36.277Z,6.10
2023-01-31T00:56:08.289Z,6.00
2023-01-31T00:58:37.275Z,5.90
2023-01-31T01:01:09.327Z,5.60
2023-01-31T01:03:38.115Z,5.60
2023-01-31T01:06:07.474Z,5.40
2023-01-31T01:08:37.884Z,5.30
2023-01-31T01:11:07.095Z,5.20
2023-01-31T01:13:34.951Z,5.10
2023-01-31T01:16:06.422Z,5.20
2023-01-31T01:18:35.520Z,5.00
2023-01-31T01:21:09.598Z,5.10
2023-01-31T01:23:39.288Z,5.00
2023-01-31T01:26:07.472Z,4.90
2023-01-31T01:28:36.093Z,4.80
2023-01-31T01:31:08.158Z,5.00
2023-01-31T01:33:36.458Z,4.90
2023-01-31T01:36:05.598Z,5.00
2023-01-31T01:38:36.417Z,5.10
2023-01-31T01:41:06.223Z,5.10
2023-01-31T01:43:44.729Z,5.30
2023-01-31T01:46:16.034Z,5.20
2023-01-31T01:48:46.225Z,5.20
2023-01-31T01:51:19.186Z,5.30
2023-01-31T01:53:50.917Z,5.50
2023-01-31T01:56:24.533Z,5.50
2023-01-31T01:59:00.827Z,5.00
2023-01-31T02:01:36.840Z,4.60
2023-01-31T02:04:06.307Z,4.40
2023-01-31T02:06:34.293Z,4.40
2023-01-31T02:09:04.124Z,4.50
2023-01-31T02:11:33.670Z,4.70
2023-01-31T02:14:05.048Z,4.80
2023-01-31T02:16:33.013Z,4.30
2023-01-31T02:19:01.387Z,3.80
2023-01-31T02:22:01.763Z,3.70
2023-01-31T02:24:56.500Z,3.40
2023-01-31T02:27:35.963Z,3.10
2023-01-31T02:30:22.076Z,3.10
2023-01-31T02:32:58.780Z,3.30
2023-01-31T02:35:38.026Z,3.80
2023-01-31T02:38:20.385Z,3.90
2023-01-31T02:40:51.743Z,3.80
2023-01-31T02:43:24.037Z,3.50
2023-01-31T02:45:59.870Z,3.20
2023-01-31T02:48:41.745Z,3.50
2023-01-31T02:51:15.964Z,3.80
2023-01-31T02:53:48.283Z,3.90
2023-01-31T02:56:20.382Z,3.90
2023-01-31T02:58:55.804Z,4.20
2023-01-31T03:01:31.219Z,4.40
2023-01-31T03:04:03.190Z,4.60
2023-01-31T03:06:59.827Z,4.80
2023-01-31T03:09:39.623Z,4.80
2023-01-31T03:12:37.910Z,4.80
2023-01-31T03:15:20.624Z,4.90
2023-01-31T03:17:58.299Z,4.90
2023-01-31T03:20:36.325Z,4.80
2023-01-31T03:23:09.556Z,4.60
2023-01-31T03:25:39.256Z,4.70
2023-01-31T03:28:12.446Z,4.80
2023-01-31T03:30:44.064Z,4.80
2023-01-31T03:33:17.308Z,4.50
2023-01-31T03:35:49.788Z,4.60
2023-01-31T03:38:22.520Z,4.70
2023-01-31T03:40:57.434Z,4.30
2023-01-31T03:43:29.365Z,4.10
2023-01-31T03:46:01.071Z,3.90
2023-01-31T03:48:34.425Z,3.50
2023-01-31T03:51:08.384Z,3.40
2023-01-31T03:53:42.003Z,3.40
2023-01-31T03:56:16.142Z,3.50
2023-01-31T03:58:47.989Z,3.70
2023-01-31T04:01:17.503Z,3.80
2023-01-31T04:03:49.692Z,3.70
2023-01-31T04:06:19.070Z,3.80
2023-01-31T04:08:47.027Z,3.80
2023-01-31T04:11:15.531Z,3.90
2023-01-31T04:13:43.764Z,3.80
2023-01-31T04:16:11.709Z,3.80
2023-01-31T04:18:40.088Z,3.80
2023-01-31T04:21:07.972Z,3.70
2023-01-31T04:23:37.286Z,3.70
2023-01-31T04:26:05.551Z,3.80
2023-01-31T04:28:33.479Z,3.80
2023-01-31T04:31:01.369Z,3.70
2023-01-31T04:33:29.261Z,3.60
2023-01-31T04:35:57.203Z,3.60
2023-01-31T04:38:25.059Z,3.50
2023-01-31T04:40:54.193Z,3.50
2023-01-31T04:43:22.001Z,3.70
2023-01-31T04:45:50.758Z,3.70
2023-01-31T04:48:18.648Z,3.80
2023-01-31T04:50:46.728Z,3.70
2023-01-31T04:53:15.321Z,3.70
2023-01-31T04:55:43.281Z,3.80
2023-01-31T04:58:12.385Z,3.80
2023-01-31T05:00:40.194Z,3.70
2023-01-31T05:03:08.432Z,3.50
2023-01-31T05:05:37.104Z,3.50
2023-01-31T05:08:05.729Z,3.50
2023-01-31T05:10:35.210Z,3.30
2023-01-31T05:13:03.334Z,3.30
2023-01-31T05:15:33.156Z,3.40
2023-01-31T05:18:03.686Z,3.30
2023-01-31T05:20:33.866Z,3.30
2023-01-31T05:23:01.929Z,3.30
2023-01-31T05:25:31.510Z,3.40
2023-01-31T05:27:59.489Z,3.30
2023-01-31T05:30:27.741Z,3.40
2023-01-31T05:32:57.071Z,3.30
2023-01-31T05:35:24.908Z,3.30
2023-01-31T05:37:54.345Z,3.30
2023-01-31T05:40:22.824Z,3.40
2023-01-31T05:42:55.052Z,3.40
2023-01-31T05:45:23.631Z,3.30
2023-01-31T05:47:51.623Z,3.20
2023-01-31T05:50:21.546Z,3.00
2023-01-31T05:52:53.015Z,3.10
2023-01-31T05:55:21.281Z,3.20
2023-01-31T05:57:49.285Z,3.30
2023-01-31T06:00:18.158Z,3.30
2023-01-31T06:02:46.310Z,3.30
2023-01-31T06:05:14.125Z,3.30
2023-01-31T06:07:43.521Z,3.40
2023-01-31T06:10:15.082Z,3.40
2023-01-31T06:12:42.933Z,3.40
2023-01-31T06:15:11.557Z,3.20
2023-01-31T06:17:39.360Z,3.00
2023-01-31T06:20:07.856Z,2.80
2023-01-31T06:22:35.660Z,2.70
2023-01-31T06:25:05.313Z,2.50
2023-01-31T06:27:33.624Z,2.40
2023-01-31T06:30:01.703Z,2.30
2023-01-31T06:32:29.532Z,2.20
2023-01-31T06:34:57.474Z,2.30
2023-01-31T06:37:25.404Z,2.20
2023-01-31T06:39:53.190Z,2.20
2023-01-31T06:42:22.325Z,2.30
2023-01-31T06:44:50.134Z,2.20
2023-01-31T06:47:18.057Z,2.20
2023-01-31T06:49:45.828Z,2.20
2023-01-31T06:52:15.131Z,2.30
2023-01-31T06:54:43.085Z,2.30
2023-01-31T06:57:10.919Z,2.30
2023-01-31T06:59:40.079Z,2.30
2023-01-31T07:02:07.890Z,2.30
2023-01-31T07:04:35.775Z,2.20
2023-01-31T07:07:03.705Z,2.20
2023-01-31T07:09:31.524Z,2.10
2023-01-31T07:11:59.295Z,2.10
2023-01-31T07:14:27.091Z,2.10
2023-01-31T07:16:56.488Z,2.10
2023-01-31T07:19:24.395Z,2.10
2023-01-31T07:21:52.467Z,2.10
2023-01-31T07:24:20.714Z,2.00
2023-01-31T07:26:48.649Z,4.90
2023-01-31T07:29:16.628Z,7.10
2023-01-31T07:31:44.463Z,7.70
2023-01-31T07:34:13.707Z,8.40
2023-01-31T07:36:41.511Z,7.70
2023-01-31T07:39:09.459Z,7.40
2023-01-31T07:41:37.246Z,6.60
2023-01-31T07:44:08.455Z,5.70
2023-01-31T07:46:36.313Z,4.90
2023-01-31T07:49:04.473Z,4.60
2023-01-31T07:51:34.504Z,4.10
2023-01-31T07:54:02.571Z,3.80
2023-01-31T07:56:30.702Z,3.70
2023-01-31T07:59:00.454Z,3.60
2023-01-31T08:01:48.524Z,3.50
2023-01-31T08:04:22.001Z,3.40
2023-01-31T08:06:55.099Z,3.30
2023-01-31T08:09:23.129Z,3.20
2023-01-31T08:11:51.857Z,3.10
2023-01-31T08:14:23.583Z,3.00
2023-01-31T08:16:51.416Z,2.80
2023-01-31T08:19:19.282Z,2.80
2023-01-31T08:21:47.116Z,2.80
2023-01-31T08:24:16.373Z,2.80
2023-01-31T08:26:44.832Z,2.80
2023-01-31T08:29:12.795Z,2.80
2023-01-31T08:31:42.073Z,2.80
2023-01-31T08:34:10.353Z,2.80
2023-01-31T08:36:38.424Z,2.80
2023-01-31T08:39:06.451Z,2.80
2023-01-31T08:41:37.548Z,2.80
2023-01-31T08:44:06.083Z,2.80
2023-01-31T08:46:35.870Z,2.80
2023-01-31T08:49:05.573Z,2.80
2023-01-31T08:51:33.896Z,2.80
2023-01-31T08:54:01.701Z,2.80
2023-01-31T08:56:30.115Z,2.80
2023-01-31T08:58:59.563Z,3.00
2023-01-31T09:01:27.433Z,3.00
2023-01-31T09:03:57.015Z,3.10
2023-01-31T09:06:27.184Z,3.20
2023-01-31T09:08:56.881Z,3.30
2023-01-31T09:11:24.736Z,3.30
2023-01-31T09:13:52.598Z,3.20
2023-01-31T09:16:22.032Z,3.30
2023-01-31T09:18:49.946Z,3.40
2023-01-31T09:21:20.057Z,3.40
2023-01-31T09:23:49.528Z,3.40
2023-01-31T09:26:17.939Z,3.40
2023-01-31T09:28:45.933Z,3.40
2023-01-31T09:31:16.107Z,3.30
2023-01-31T09:33:45.827Z,3.40
2023-01-31T09:36:15.214Z,3.50
2023-01-31T09:38:43.121Z,3.50
2023-01-31T09:41:20.299Z,3.50
2023-01-31T09:43:55.402Z,3.50
2023-01-31T09:46:28.472Z,3.50
2023-01-31T09:49:02.035Z,3.50
2023-01-31T09:51:30.769Z,3.60
2023-01-31T09:53:58.854Z,3.50
2023-01-31T09:56:35.294Z,3.50
2023-01-31T09:59:15.523Z,3.40
2023-01-31T10:01:49.937Z,3.50
2023-01-31T10:04:30.808Z,3.50
2023-01-31T10:07:04.775Z,3.50
2023-01-31T10:09:36.830Z,3.60
2023-01-31T10:12:13.721Z,3.60
2023-01-31T10:14:47.726Z,3.60
2023-01-31T10:17:21.838Z,3.50
2023-01-31T10:19:56.156Z,3.50
2023-01-31T10:22:30.470Z,3.40
2023-01-31T10:25:03.290Z,3.40
2023-01-31T10:27:41.784Z,3.40
2023-01-31T10:30:18.809Z,3.40
2023-01-31T10:32:51.693Z,3.40
2023-01-31T10:35:25.901Z,3.40
2023-01-31T10:37:58.623Z,3.40
2023-01-31T10:40:31.706Z,3.40
2023-01-31T10:43:09.514Z,3.40
2023-01-31T10:45:38.485Z,3.50
2023-01-31T10:48:18.095Z,3.50
2023-01-31T10:50:59.162Z,3.50
2023-01-31T10:53:48.614Z,3.60
2023-01-31T10:56:22.001Z,3.70
2023-01-31T10:58:51.901Z,3.80
2023-01-31T11:01:19.907Z,3.90
2023-01-31T11:03:50.643Z,4.00
2023-01-31T11:06:20.867Z,4.00
2023-01-31T11:08:51.405Z,4.10
2023-01-31T11:11:21.352Z,4.10
2023-01-31T11:14:00.039Z,4.20
2023-01-31T11:16:31.855Z,4.30
2023-01-31T11:19:02.314Z,4.30
2023-01-31T11:21:34.861Z,4.30
2023-01-31T11:24:05.196Z,4.40
2023-01-31T11:26:35.960Z,4.40
2023-01-31T11:29:09.077Z,4.50
2023-01-31T11:31:41.874Z,4.40
2023-01-31T11:34:20.764Z,4.60
2023-01-31T11:36:49.996Z,4.60
2023-01-31T11:39:32.641Z,4.60
2023-01-31T11:42:07.545Z,4.60
2023-01-31T11:44:35.349Z,4.60
2023-01-31T11:47:12.843Z,4.60
2023-01-31T11:49:43.275Z,4.70
2023-01-31T11:52:18.272Z,4.80
2023-01-31T11:54:49.700Z,4.80
2023-01-31T11:57:23.068Z,4.90
2023-01-31T11:59:52.849Z,4.90
2023-01-31T12:02:28.730Z,4.80
2023-01-31T12:04:57.204Z,4.80
2023-01-31T12:07:30.273Z,4.70
2023-01-31T12:09:58.108Z,4.80
2023-01-31T12:12:31.184Z,4.70
2023-01-31T12:15:02.774Z,4.70
2023-01-31T12:17:35.283Z,4.70
2023-01-31T12:20:29.015Z,4.70
2023-01-31T12:23:11.975Z,4.70
2023-01-31T12:25:52.946Z,4.60
2023-01-31T12:28:33.682Z,4.60
2023-01-31T12:31:28.523Z,4.70
2023-01-31T12:34:11.315Z,4.70
2023-01-31T12:36:48.436Z,4.70
2023-01-31T12:39:43.104Z,4.80
2023-01-31T12:42:29.982Z,4.80
2023-01-31T12:45:07.300Z,4.80
2023-01-31T12:47:56.707Z,4.80
2023-01-31T12:50:32.389Z,4.80
2023-01-31T12:53:21.369Z,4.80
2023-01-31T12:56:04.782Z,4.90
2023-01-31T12:58:45.939Z,4.90
2023-01-31T13:01:18.729Z,5.00
2023-01-31T13:03:59.938Z,4.90
2023-01-31T13:06:33.113Z,5.00
2023-01-31T13:09:08.522Z,5.00
2023-01-31T13:11:41.666Z,5.10
2023-01-31T13:14:14.847Z,5.10
2023-01-31T13:16:45.723Z,5.10
2023-01-31T13:19:19.359Z,5.10
2023-01-31T13:21:50.238Z,5.10
2023-01-31T13:24:22.631Z,5.10
2023-01-31T13:26:57.024Z,5.20
2023-01-31T13:29:29.874Z,5.20
2023-01-31T13:32:02.536Z,5.20
2023-01-31T13:34:38.602Z,5.20
2023-01-31T13:37:12.243Z,5.20
2023-01-31T13:39:43.840Z,5.20
2023-01-31T13:42:15.637Z,5.30
2023-01-31T13:44:43.914Z,5.30
2023-01-31T13:47:18.646Z,5.30
2023-01-31T13:49:51.747Z,5.40
2023-01-31T13:52:24.514Z,5.30
2023-01-31T13:54:57.696Z,5.30
2023-01-31T13:57:30.413Z,5.40
2023-01-31T14:00:04.585Z,5.40
2023-01-31T14:02:32.536Z,5.40
2023-01-31T14:05:06.636Z,5.40
2023-01-31T14:07:34.621Z,5.30
2023-01-31T14:10:37.845Z,5.40
2023-01-31T14:13:37.658Z,5.40
2023-01-31T14:16:21.879Z,5.40
2023-01-31T14:18:49.699Z,5.30
2023-01-31T14:21:54.628Z,5.30
2023-01-31T14:24:59.894Z,5.20
2023-01-31T14:27:35.431Z,5.20
2023-01-31T14:30:19.512Z,5.20
2023-01-31T14:32:50.267Z,5.10
2023-01-31T14:35:41.118Z,5.10
2023-01-31T14:38:18.046Z,5.00
2023-01-31T14:41:00.817Z,5.00
2023-01-31T14:43:53.914Z,4.90
2023-01-31T14:46:43.602Z,4.90
2023-01-31T14:49:34.119Z,4.90
2023-01-31T14:52:22.929Z,4.90
2023-01-31T14:55:23.755Z,4.80
2023-01-31T14:57:56.043Z,4.80
2023-01-31T15:00:27.698Z,4.80
2023-01-31T15:03:02.989Z,4.80
2023-01-31T15:05:43.603Z,4.80
2023-01-31T15:08:40.809Z,4.80
2023-01-31T15:11:14.046Z,4.80
2023-01-31T15:13:48.159Z,4.80
2023-01-31T15:16:26.219Z,4.80
2023-01-31T15:19:00.210Z,4.80
2023-01-31T15:21:31.888Z,4.80
2023-01-31T15:24:01.585Z,4.80
2023-01-31T15:26:32.734Z,4.80
2023-01-31T15:29:02.752Z,4.80
2023-01-31T15:31:36.247Z,4.80
2023-01-31T15:34:13.710Z,4.90
2023-01-31T15:36:49.821Z,4.80
2023-01-31T15:39:23.171Z,4.90
2023-01-31T15:41:50.951Z,4.90
2023-01-31T15:44:20.838Z,4.90
2023-01-31T15:46:51.635Z,4.90
2023-01-31T15:49:38.431Z,4.90
2023-01-31T15:52:18.112Z,4.90
2023-01-31T15:54:58.236Z,4.90
2023-01-31T15:57:29.496Z,5.00
2023-01-31T15:59:58.243Z,5.00
2023-01-31T16:02:30.632Z,5.00
2023-01-31T16:04:58.751Z,5.00
2023-01-31T16:07:31.188Z,5.00
2023-01-31T16:10:01.893Z,5.00
2023-01-31T16:12:32.044Z,5.00
2023-01-31T16:15:04.656Z,5.00
2023-01-31T16:17:34.047Z,5.00
2023-01-31T16:20:01.934Z,5.00
2023-01-31T16:22:32.251Z,5.00
2023-01-31T16:25:02.713Z,5.00
2023-01-31T16:27:34.241Z,5.10
2023-01-31T16:30:04.264Z,5.10
2023-01-31T16:32:35.265Z,5.10
2023-01-31T16:35:06.559Z,5.00
2023-01-31T16:37:37.314Z,5.00
2023-01-31T16:40:18.436Z,5.00
2023-01-31T16:42:46.656Z,5.10
2023-01-31T16:45:29.739Z,5.00
2023-01-31T16:48:13.178Z,5.00
2023-01-31T16:50:43.711Z,5.10
2023-01-31T16:53:27.607Z,5.10
2023-01-31T16:56:21.337Z,5.10
2023-01-31T16:58:53.150Z,5.10
2023-01-31T17:01:23.761Z,5.10
2023-01-31T17:04:18.504Z,5.10
2023-01-31T17:06:50.646Z,5.10
2023-01-31T17:09:22.863Z,5.10
2023-01-31T17:11:51.025Z,5.20
2023-01-31T17:14:18.809Z,5.20
2023-01-31T17:16:46.975Z,5.20
2023-01-31T17:19:16.056Z,5.20
2023-01-31T17:21:45.612Z,5.30
2023-01-31T17:24:14.785Z,5.30
2023-01-31T17:26:42.885Z,5.20
2023-01-31T17:29:11.151Z,5.20
2023-01-31T17:31:39.281Z,5.30
2023-01-31T17:34:13.572Z,5.30
2023-01-31T17:36:41.485Z,5.30
2023-01-31T17:39:10.701Z,5.30
2023-01-31T17:41:41.647Z,5.30
2023-01-31T17:44:13.767Z,5.40
2023-01-31T17:46:41.804Z,5.40
2023-01-31T17:49:09.765Z,5.40
2023-01-31T17:51:37.659Z,5.40
2023-01-31T17:54:05.803Z,5.40
2023-01-31T17:56:35.979Z,5.40
2023-01-31T17:59:03.883Z,5.40
2023-01-31T18:01:32.459Z,5.50
2023-01-31T18:04:00.692Z,5.50
2023-01-31T18:06:28.511Z,5.50
2023-01-31T18:08:56.319Z,5.50
2023-01-31T18:11:24.196Z,5.50
2023-01-31T18:13:53.388Z,5.60
2023-01-31T18:16:21.723Z,5.60
2023-01-31T18:18:50.656Z,5.60
2023-01-31T18:21:21.793Z,5.60
2023-01-31T18:23:53.233Z,5.70
2023-01-31T18:26:21.698Z,5.70
2023-01-31T18:28:50.502Z,5.70
2023-01-31T18:31:20.002Z,5.70
2023-01-31T18:33:48.862Z,5.70
2023-01-31T18:36:19.146Z,5.70
2023-01-31T18:38:48.838Z,5.70
2023-01-31T18:41:19.184Z,5.70
2023-01-31T18:43:47.778Z,5.80
2023-01-31T18:46:16.893Z,5.80
2023-01-31T18:48:46.384Z,5.80
2023-01-31T18:51:15.603Z,5.80
2023-01-31T18:53:45.872Z,5.80
2023-01-31T18:56:17.029Z,5.80
2023-01-31T18:58:45.918Z,5.80
2023-01-31T19:01:15.693Z,5.90
2023-01-31T19:03:44.166Z,5.90
2023-01-31T19:06:15.927Z,5.90
2023-01-31T19:08:43.984Z,5.80
2023-01-31T19:11:13.885Z,5.80
2023-01-31T19:13:42.649Z,5.90
2023-01-31T19:16:12.523Z,5.80
2023-01-31T19:18:41.199Z,5.80
2023-01-31T19:21:17.775Z,5.80
2023-01-31T19:23:46.254Z,5.80
2023-01-31T19:26:15.686Z,5.90
2023-01-31T19:28:43.824Z,5.80
2023-01-31T19:31:14.197Z,5.80
2023-01-31T19:33:42.418Z,5.80
2023-01-31T19:36:11.243Z,5.90
2023-01-31T19:38:40.495Z,5.80
2023-01-31T19:41:09.785Z,5.80
2023-01-31T19:43:37.827Z,5.80
2023-01-31T19:46:08.567Z,5.80
2023-01-31T19:48:36.612Z,5.80
2023-01-31T19:51:08.403Z,5.80
2023-01-31T19:53:36.467Z,5.80
2023-01-31T19:56:06.934Z,5.80
2023-01-31T19:58:35.139Z,5.80
2023-01-31T20:01:05.480Z,5.80
2023-01-31T20:03:33.848Z,5.80
2023-01-31T20:06:03.740Z,5.80
2023-01-31T20:08:32.053Z,5.80
2023-01-31T20:11:00.097Z,5.80
2023-01-31T20:13:29.871Z,5.80
2023-01-31T20:15:59.463Z,5.90
2023-01-31T20:18:28.031Z,5.80
2023-01-31T20:20:55.936Z,5.80
2023-01-31T20:23:24.288Z,5.90
2023-01-31T20:25:53.391Z,5.80
2023-01-31T20:28:22.307Z,5.80
2023-01-31T20:30:52.271Z,5.80
2023-01-31T20:33:20.814Z,5.80
2023-01-31T20:35:48.946Z,5.80
2023-01-31T20:38:18.063Z,5.80
2023-01-31T20:40:51.439Z,5.80
2023-01-31T20:43:20.184Z,5.80
2023-01-31T20:45:48.777Z,5.80
2023-01-31T20:48:18.848Z,5.80
2023-01-31T20:50:56.196Z,5.80
2023-01-31T20:53:25.244Z,5.80
2023-01-31T20:55:57.965Z,5.80
2023-01-31T20:58:26.883Z,5.80
2023-01-31T21:00:55.826Z,5.80
2023-01-31T21:03:25.469Z,5.80
2023-01-31T21:05:53.686Z,5.80
2023-01-31T21:08:22.528Z,5.90
2023-01-31T21:10:51.064Z,5.80
2023-01-31T21:13:19.200Z,5.80
2023-01-31T21:15:52.814Z,5.80
2023-01-31T21:18:21.226Z,5.80
2023-01-31T21:20:50.474Z,5.80
2023-01-31T21:23:18.263Z,5.80
2023-01-31T21:25:46.143Z,5.70
2023-01-31T21:28:13.971Z,5.70
2023-01-31T21:30:42.037Z,5.70
2023-01-31T21:33:09.906Z,5.70
2023-01-31T21:35:37.718Z,5.70
2023-01-31T21:38:06.852Z,5.70
2023-01-31T21:40:34.769Z,5.70
2023-01-31T21:43:01.597Z,5.70
2023-01-31T21:45:41.513Z,5.70
2023-01-31T21:48:28.628Z,5.60
2023-01-31T21:50:57.815Z,5.60
2023-01-31T21:53:29.129Z,5.60
2023-01-31T21:56:01.877Z,5.50
2023-01-31T21:58:29.690Z,5.60
2023-01-31T22:01:03.889Z,5.60
2023-01-31T22:03:31.690Z,5.60
2023-01-31T22:06:03.122Z,5.60
2023-01-31T22:08:32.361Z,5.70
2023-01-31T22:11:02.081Z,5.70
2023-01-31T22:13:30.222Z,5.70
2023-01-31T22:16:02.204Z,5.70
2023-01-31T22:18:30.572Z,5.70
2023-01-31T22:21:02.870Z,5.80
2023-01-31T22:23:32.205Z,5.70
2023-01-31T22:26:03.743Z,5.60
2023-01-31T22:28:31.549Z,5.60
2023-01-31T22:31:00.825Z,5.60
2023-01-31T22:33:29.087Z,5.60
2023-01-31T22:35:57.115Z,5.50
2023-01-31T22:38:25.320Z,5.50
2023-01-31T22:40:58.331Z,5.50
2023-01-31T22:43:26.567Z,5.50
2023-01-31T22:45:56.154Z,5.40
2023-01-31T22:48:25.245Z,5.40
2023-01-31T22:50:57.535Z,5.30
2023-01-31T22:53:25.457Z,5.30
2023-01-31T22:55:55.098Z,5.20
2023-01-31T22:58:23.003Z,5.20
2023-01-31T23:00:51.334Z,5.10
2023-01-31T23:03:19.319Z,5.10
2023-01-31T23:05:47.112Z,5.00
2023-01-31T23:08:15.705Z,5.00
2023-01-31T23:10:43.861Z,5.00
2023-01-31T23:13:13.385Z,4.90
2023-01-31T23:15:41.595Z,4.90
2023-01-31T23:18:09.479Z,4.90
2023-01-31T23:20:37.290Z,4.90
2023-01-31T23:23:05.063Z,4.80
2023-01-31T23:25:32.883Z,4.80
2023-01-31T23:28:02.345Z,4.80
2023-01-31T23:30:31.637Z,4.80
2023-01-31T23:32:59.527Z,4.70
2023-01-31T23:35:27.408Z,4.70
2023-01-31T23:37:55.581Z,4.80
2023-01-31T23:40:23.713Z,4.80
2023-01-31T23:42:51.697Z,4.80
2023-01-31T23:45:19.485Z,4.90
2023-01-31T23:47:50.343Z,5.00
2023-01-31T23:50:19.087Z,5.00
2023-01-31T23:52:47.052Z,5.00
2023-01-31T23:55:14.955Z,5.10
2023-01-31T23:57:42.802Z,5.10
